Terminal Aerodrome Forecast
Issued by NWS

Home | Current Version | Previous Version | Text Only | Print | Product List | Glossary On
Versions: 1 2 3 4 5 6 7 8 9 10 11 12 13 14 15 16 17 18 19
632
FTUS46 KLOX 091749
TAFOXR
TAF
KOXR 091749Z 0918/1018 VRB03KT P6SM BKN015
     FM092000 27014KT P6SM SCT015 BKN025
     FM100300 VRB03KT P6SM SCT015 BKN025
     FM101200 VRB03KT P6SM VCSH OVC015=

USA.gov is the U.S. government's official web portal to all federal, state and local government web resources and services.